createdAt,value
2022-10-21T00:00:58.848Z,8.30
2022-10-21T00:03:27.876Z,8.30
2022-10-21T00:05:56.154Z,8.20
2022-10-21T00:08:24.948Z,8.30
2022-10-21T00:10:54.014Z,8.30
2022-10-21T00:13:24.507Z,8.30
2022-10-21T00:16:03.064Z,8.30
2022-10-21T00:18:31.690Z,8.30
2022-10-21T00:20:59.656Z,8.30
2022-10-21T00:23:27.820Z,8.30
2022-10-21T00:25:59.059Z,8.30
2022-10-21T00:28:28.670Z,8.30
2022-10-21T00:30:58.282Z,8.30
2022-10-21T00:33:27.740Z,8.30
2022-10-21T00:35:58.237Z,8.30
2022-10-21T00:38:26.397Z,8.40
2022-10-21T00:40:54.348Z,8.40
2022-10-21T00:43:22.407Z,8.50
2022-10-21T00:45:54.950Z,8.40
2022-10-21T00:48:30.551Z,8.40
2022-10-21T00:51:01.913Z,8.40
2022-10-21T00:53:31.143Z,8.50
2022-10-21T00:56:02.856Z,8.50
2022-10-21T00:58:32.867Z,8.50
2022-10-21T01:01:04.541Z,8.60
2022-10-21T01:03:34.159Z,8.60
2022-10-21T01:06:05.237Z,8.60
2022-10-21T01:08:33.301Z,8.60
2022-10-21T01:11:02.942Z,8.60
2022-10-21T01:13:44.478Z,8.60
2022-10-21T01:16:21.440Z,8.60
2022-10-21T01:19:00.022Z,8.60
2022-10-21T01:21:34.719Z,8.60
2022-10-21T01:24:33.187Z,8.60
2022-10-21T01:27:18.078Z,8.60
2022-10-21T01:30:18.175Z,8.60
2022-10-21T01:33:08.151Z,8.60
2022-10-21T01:35:41.551Z,8.60
2022-10-21T01:38:19.226Z,8.60
2022-10-21T01:40:57.443Z,8.60
2022-10-21T01:43:35.571Z,8.60
2022-10-21T01:46:07.601Z,8.60
2022-10-21T01:48:42.765Z,8.60
2022-10-21T01:51:13.518Z,8.60
2022-10-21T01:53:45.282Z,8.60
2022-10-21T01:56:16.459Z,8.70
2022-10-21T01:58:46.930Z,8.70
2022-10-21T02:01:16.719Z,8.70
2022-10-21T02:03:50.021Z,8.70
2022-10-21T02:06:18.095Z,8.80
2022-10-21T02:08:46.339Z,8.80
2022-10-21T02:11:15.062Z,8.80
2022-10-21T02:13:47.090Z,8.80
2022-10-21T02:16:18.919Z,8.80
2022-10-21T02:18:48.095Z,8.80
2022-10-21T02:21:19.422Z,8.80
2022-10-21T02:23:54.343Z,8.80
2022-10-21T02:26:23.471Z,8.80
2022-10-21T02:28:53.602Z,8.80
2022-10-21T02:31:38.547Z,8.70
2022-10-21T02:34:19.183Z,8.70
2022-10-21T02:36:54.856Z,8.80
2022-10-21T02:39:31.877Z,8.80
2022-10-21T02:42:02.094Z,8.80
2022-10-21T02:44:30.092Z,8.90
2022-10-21T02:46:58.123Z,8.90
2022-10-21T02:49:30.200Z,8.90
2022-10-21T02:51:58.291Z,9.00
2022-10-21T02:54:26.181Z,9.00
2022-10-21T02:56:54.238Z,9.00
2022-10-21T02:59:22.264Z,9.10
2022-10-21T03:01:50.246Z,9.00
2022-10-21T03:04:18.433Z,9.10
2022-10-21T03:06:47.989Z,9.10
2022-10-21T03:09:15.792Z,9.10
2022-10-21T03:11:43.650Z,9.10
2022-10-21T03:14:12.847Z,9.10
2022-10-21T03:16:40.715Z,9.10
2022-10-21T03:19:08.685Z,9.10
2022-10-21T03:21:36.603Z,9.10
2022-10-21T03:24:11.007Z,9.10
2022-10-21T03:26:47.882Z,9.10
2022-10-21T03:29:16.283Z,9.10
2022-10-21T03:31:44.172Z,9.10
2022-10-21T03:34:12.033Z,9.10
2022-10-21T03:36:42.822Z,9.10
2022-10-21T03:39:13.423Z,9.10
2022-10-21T03:41:41.347Z,9.10
2022-10-21T03:44:09.367Z,9.10
2022-10-21T03:46:37.260Z,9.10
2022-10-21T03:49:09.036Z,9.10
2022-10-21T03:51:39.945Z,9.10
2022-10-21T03:54:07.804Z,9.10
2022-10-21T03:56:37.065Z,9.20
2022-10-21T03:59:04.921Z,9.20
2022-10-21T04:01:33.035Z,9.10
2022-10-21T04:04:00.943Z,9.10
2022-10-21T04:06:29.330Z,9.10
2022-10-21T04:08:57.220Z,9.10
2022-10-21T04:11:25.317Z,9.00
2022-10-21T04:13:54.640Z,9.00
2022-10-21T04:16:23.962Z,9.00
2022-10-21T04:18:51.924Z,9.00
2022-10-21T04:21:20.029Z,9.00
2022-10-21T04:23:48.032Z,9.10
2022-10-21T04:26:15.903Z,9.10
2022-10-21T04:28:43.816Z,9.00
2022-10-21T04:31:13.018Z,9.10
2022-10-21T04:33:41.037Z,9.10
2022-10-21T04:36:09.184Z,9.10
2022-10-21T04:38:37.071Z,9.10
2022-10-21T04:41:05.375Z,9.00
2022-10-21T04:43:33.275Z,9.00
2022-10-21T04:46:01.169Z,9.00
2022-10-21T04:48:30.434Z,8.90
2022-10-21T04:50:58.428Z,8.90
2022-10-21T04:53:26.700Z,8.90
2022-10-21T04:55:55.112Z,8.90
2022-10-21T04:58:23.743Z,8.90
2022-10-21T05:00:52.412Z,9.00
2022-10-21T05:03:20.612Z,8.90
2022-10-21T05:05:52.049Z,8.90
2022-10-21T05:08:21.212Z,9.00
2022-10-21T05:10:49.269Z,9.00
2022-10-21T05:13:17.181Z,9.00
2022-10-21T05:15:45.050Z,9.00
2022-10-21T05:18:13.008Z,9.00
2022-10-21T05:20:40.902Z,9.00
2022-10-21T05:23:10.114Z,9.00
2022-10-21T05:25:38.475Z,9.00
2022-10-21T05:28:06.518Z,9.00
2022-10-21T05:30:34.492Z,9.10
2022-10-21T05:33:02.412Z,9.10
2022-10-21T05:35:30.586Z,9.10
2022-10-21T05:37:58.859Z,9.10
2022-10-21T05:40:28.325Z,9.20
2022-10-21T05:42:56.148Z,9.20
2022-10-21T05:45:27.026Z,9.20
2022-10-21T05:47:55.104Z,9.20
2022-10-21T05:50:23.015Z,9.20
2022-10-21T05:52:50.911Z,9.30
2022-10-21T05:55:18.993Z,9.40
2022-10-21T05:57:48.379Z,9.40
2022-10-21T06:00:16.744Z,9.40
2022-10-21T06:02:44.667Z,9.40
2022-10-21T06:05:12.626Z,9.40
2022-10-21T06:07:40.928Z,9.50
2022-10-21T06:10:12.061Z,9.50
2022-10-21T06:12:40.189Z,9.50
2022-10-21T06:15:10.536Z,9.50
2022-10-21T06:17:38.738Z,9.60
2022-10-21T06:20:08.162Z,9.50
2022-10-21T06:22:36.017Z,9.60
2022-10-21T06:25:04.121Z,9.60
2022-10-21T06:27:32.056Z,9.70
2022-10-21T06:30:00.020Z,9.70
2022-10-21T06:32:29.559Z,9.70
2022-10-21T06:35:00.177Z,9.60
2022-10-21T06:37:28.172Z,9.50
2022-10-21T06:39:56.098Z,9.40
2022-10-21T06:42:24.144Z,9.40
2022-10-21T06:44:55.478Z,9.30
2022-10-21T06:47:25.869Z,9.30
2022-10-21T06:49:55.144Z,9.30
2022-10-21T06:52:23.052Z,9.30
2022-10-21T06:54:51.266Z,9.40
2022-10-21T06:57:19.163Z,9.40
2022-10-21T06:59:49.460Z,9.40
2022-10-21T07:02:17.384Z,9.40
2022-10-21T07:04:45.696Z,9.50
2022-10-21T07:07:14.981Z,9.40
2022-10-21T07:09:43.035Z,9.40
2022-10-21T07:12:11.477Z,9.50
2022-10-21T07:14:39.450Z,9.60
2022-10-21T07:17:07.270Z,9.60
2022-10-21T07:19:35.284Z,9.60
2022-10-21T07:22:03.282Z,9.70
2022-10-21T07:24:32.488Z,9.70
2022-10-21T07:27:00.367Z,9.80
2022-10-21T07:29:28.673Z,9.80
2022-10-21T07:31:57.908Z,9.90
2022-10-21T07:34:26.425Z,9.90
2022-10-21T07:36:54.868Z,9.90
2022-10-21T07:39:26.646Z,10.00
2022-10-21T07:41:57.609Z,10.00
2022-10-21T07:44:26.746Z,10.00
2022-10-21T07:46:55.578Z,10.10
2022-10-21T07:49:25.144Z,10.10
2022-10-21T07:51:54.189Z,10.20
2022-10-21T07:54:23.358Z,10.30
2022-10-21T07:56:52.839Z,10.30
2022-10-21T07:59:24.153Z,10.40
2022-10-21T08:01:53.195Z,10.50
2022-10-21T08:04:24.858Z,10.50
2022-10-21T08:06:52.855Z,10.50
2022-10-21T08:09:20.968Z,10.50
2022-10-21T08:11:49.375Z,10.60
2022-10-21T08:14:18.611Z,10.60
2022-10-21T08:16:52.643Z,10.70
2022-10-21T08:19:24.508Z,10.70
2022-10-21T08:21:52.482Z,10.70
2022-10-21T08:24:20.348Z,10.70
2022-10-21T08:26:48.355Z,10.80
2022-10-21T08:29:17.115Z,10.80
2022-10-21T08:31:45.106Z,10.90
2022-10-21T08:34:14.598Z,11.10
2022-10-21T08:36:42.628Z,11.30
2022-10-21T08:39:10.592Z,11.50
2022-10-21T08:42:12.805Z,11.60
2022-10-21T08:44:45.981Z,11.70
2022-10-21T08:47:21.789Z,11.80
2022-10-21T08:49:59.273Z,11.70
2022-10-21T08:52:35.445Z,11.70
2022-10-21T08:55:06.184Z,11.70
2022-10-21T08:57:35.508Z,11.80
2022-10-21T09:00:14.549Z,12.00
2022-10-21T09:03:00.020Z,12.10
2022-10-21T09:05:44.036Z,12.20
2022-10-21T09:08:21.870Z,12.30
2022-10-21T09:11:01.149Z,12.30
2022-10-21T09:13:53.677Z,12.40
2022-10-21T09:16:31.734Z,12.40
2022-10-21T09:19:10.505Z,12.50
2022-10-21T09:22:16.435Z,12.60
2022-10-21T09:24:55.260Z,12.80
2022-10-21T09:27:32.324Z,13.30
2022-10-21T09:30:08.240Z,13.60
2022-10-21T09:32:40.639Z,13.70
2022-10-21T09:35:17.324Z,14.90
2022-10-21T09:37:52.675Z,16.60
2022-10-21T09:40:27.533Z,18.10
2022-10-21T09:43:02.769Z,18.30
2022-10-21T09:45:34.468Z,18.70
2022-10-21T09:48:05.579Z,18.70
2022-10-21T09:50:35.715Z,19.50
2022-10-21T09:53:10.135Z,20.70
2022-10-21T09:55:40.681Z,20.70
2022-10-21T09:58:08.580Z,20.80
2022-10-21T10:00:46.711Z,19.90
2022-10-21T10:03:31.224Z,19.50
2022-10-21T10:05:59.761Z,18.60
2022-10-21T10:08:36.089Z,17.70
2022-10-21T10:11:11.782Z,16.90
2022-10-21T10:13:41.529Z,16.80
2022-10-21T10:16:22.152Z,17.00
2022-10-21T10:18:51.203Z,17.90
2022-10-21T10:21:20.280Z,18.60
2022-10-21T10:23:51.560Z,18.90
2022-10-21T10:26:30.832Z,18.10
2022-10-21T10:29:03.731Z,17.50
2022-10-21T10:31:34.645Z,18.00
2022-10-21T10:34:06.625Z,17.50
2022-10-21T10:36:38.245Z,17.40
2022-10-21T10:39:09.901Z,17.10
2022-10-21T10:41:40.423Z,16.90
2022-10-21T10:44:19.602Z,16.70
2022-10-21T10:46:55.594Z,16.50
2022-10-21T10:49:24.515Z,16.60
2022-10-21T10:52:14.950Z,16.80
2022-10-21T10:54:45.310Z,16.70
2022-10-21T10:57:16.581Z,17.20
2022-10-21T10:59:46.128Z,17.60
2022-10-21T11:02:26.045Z,17.90
2022-10-21T11:05:17.246Z,17.80
2022-10-21T11:07:48.788Z,18.20
2022-10-21T11:10:36.896Z,17.30
2022-10-21T11:13:10.598Z,17.10
2022-10-21T11:15:58.932Z,17.10
2022-10-21T11:18:33.609Z,17.00
2022-10-21T11:21:15.496Z,16.60
2022-10-21T11:24:11.773Z,16.70
2022-10-21T11:26:49.724Z,16.90
2022-10-21T11:29:35.004Z,17.10
2022-10-21T11:32:12.633Z,16.80
2022-10-21T11:34:59.843Z,17.10
2022-10-21T11:37:44.196Z,17.10
2022-10-21T11:40:20.847Z,16.90
2022-10-21T11:42:53.247Z,17.10
2022-10-21T11:45:34.205Z,17.70
2022-10-21T11:48:14.436Z,17.60
2022-10-21T11:50:51.246Z,17.60
2022-10-21T11:53:37.513Z,17.50
2022-10-21T11:56:18.244Z,17.00
2022-10-21T11:58:56.362Z,17.00
2022-10-21T12:01:30.600Z,17.10
2022-10-21T12:04:13.868Z,17.20
2022-10-21T12:06:50.815Z,17.20
2022-10-21T12:09:23.364Z,16.80
2022-10-21T12:11:55.562Z,16.70
2022-10-21T12:14:31.705Z,16.60
2022-10-21T12:17:02.759Z,16.40
2022-10-21T12:19:30.924Z,16.30
2022-10-21T12:21:58.981Z,16.10
2022-10-21T12:24:36.538Z,16.20
2022-10-21T12:27:11.254Z,16.20
2022-10-21T12:29:53.590Z,16.30
2022-10-21T12:32:29.264Z,16.20
2022-10-21T12:34:57.576Z,16.20
2022-10-21T12:38:03.090Z,16.20
2022-10-21T12:40:41.684Z,16.10
2022-10-21T12:43:22.447Z,16.00
2022-10-21T12:46:06.110Z,16.00
2022-10-21T12:48:38.166Z,16.00
2022-10-21T12:51:09.051Z,16.00
2022-10-21T12:53:41.042Z,16.10
2022-10-21T12:56:11.127Z,16.10
2022-10-21T12:58:42.523Z,16.00
2022-10-21T13:01:37.330Z,16.10
2022-10-21T13:04:06.454Z,16.00
2022-10-21T13:06:54.819Z,16.00
2022-10-21T13:09:34.720Z,16.00
2022-10-21T13:12:16.189Z,16.00
2022-10-21T13:14:46.931Z,16.00
2022-10-21T13:17:47.998Z,15.90
2022-10-21T13:20:49.063Z,15.90
2022-10-21T13:23:41.461Z,15.80
2022-10-21T13:26:21.608Z,15.60
2022-10-21T13:29:08.618Z,15.80
2022-10-21T13:31:38.688Z,15.60
2022-10-21T13:34:25.821Z,15.50
2022-10-21T13:36:54.349Z,15.50
2022-10-21T13:39:28.858Z,15.40
2022-10-21T13:42:00.736Z,15.30
2022-10-21T13:44:33.542Z,15.20
2022-10-21T13:47:20.111Z,15.20
2022-10-21T13:49:54.068Z,15.10
2022-10-21T13:52:22.105Z,15.10
2022-10-21T13:54:58.251Z,15.10
2022-10-21T13:57:29.780Z,15.00
2022-10-21T14:00:02.211Z,15.10
2022-10-21T14:02:33.026Z,15.00
2022-10-21T14:05:03.035Z,14.90
2022-10-21T14:07:31.659Z,15.00
2022-10-21T14:09:59.816Z,15.00
2022-10-21T14:12:32.945Z,14.90
2022-10-21T14:15:05.943Z,14.90
2022-10-21T14:17:34.799Z,14.80
2022-10-21T14:20:08.438Z,14.90
2022-10-21T14:22:37.793Z,14.90
2022-10-21T14:25:07.392Z,14.80
2022-10-21T14:27:36.889Z,14.80
2022-10-21T14:30:10.070Z,14.80
2022-10-21T14:32:39.232Z,14.70
2022-10-21T14:35:25.575Z,14.70
2022-10-21T14:37:55.723Z,14.60
2022-10-21T14:40:26.689Z,14.60
2022-10-21T14:42:55.728Z,14.70
2022-10-21T14:45:27.870Z,14.60
2022-10-21T14:48:07.165Z,14.60
2022-10-21T14:50:38.060Z,14.60
2022-10-21T14:53:16.506Z,14.60
2022-10-21T14:55:46.717Z,14.60
2022-10-21T14:58:22.721Z,14.60
2022-10-21T15:00:58.510Z,14.50
2022-10-21T15:03:40.848Z,14.50
2022-10-21T15:06:12.855Z,14.50
2022-10-21T15:08:42.526Z,14.50
2022-10-21T15:11:18.698Z,14.50
2022-10-21T15:14:01.117Z,14.50
2022-10-21T15:16:31.010Z,14.50
2022-10-21T15:18:59.779Z,14.50
2022-10-21T15:21:36.332Z,14.50
2022-10-21T15:24:05.697Z,14.40
2022-10-21T15:26:37.191Z,14.40
2022-10-21T15:29:14.345Z,14.40
2022-10-21T15:31:42.305Z,14.40
2022-10-21T15:34:14.958Z,14.40
2022-10-21T15:36:44.977Z,14.40
2022-10-21T15:39:13.493Z,14.30
2022-10-21T15:41:42.181Z,14.40
2022-10-21T15:44:19.785Z,14.40
2022-10-21T15:46:49.977Z,14.30
2022-10-21T15:49:20.120Z,14.40
2022-10-21T15:51:50.915Z,14.40
2022-10-21T15:54:19.926Z,14.40
2022-10-21T15:56:50.104Z,14.30
2022-10-21T15:59:20.295Z,14.30
2022-10-21T16:01:49.034Z,14.30
2022-10-21T16:04:17.286Z,14.30
2022-10-21T16:06:48.088Z,14.20
2022-10-21T16:09:21.000Z,14.20
2022-10-21T16:11:59.098Z,14.20
2022-10-21T16:14:29.620Z,14.20
2022-10-21T16:16:58.918Z,14.10
2022-10-21T16:19:27.083Z,14.10
2022-10-21T16:21:54.978Z,14.00
2022-10-21T16:24:24.303Z,14.00
2022-10-21T16:26:52.351Z,14.00
2022-10-21T16:29:22.861Z,14.10
2022-10-21T16:31:51.250Z,14.10
2022-10-21T16:34:20.028Z,14.00
2022-10-21T16:36:48.007Z,14.00
2022-10-21T16:39:17.591Z,14.00
2022-10-21T16:41:47.022Z,14.10
2022-10-21T16:44:14.985Z,14.00
2022-10-21T16:46:49.800Z,14.00
2022-10-21T16:49:28.696Z,14.00
2022-10-21T16:51:57.572Z,13.90
2022-10-21T16:54:25.525Z,14.00
2022-10-21T16:56:55.569Z,14.10
2022-10-21T16:59:23.996Z,14.00
2022-10-21T17:01:52.527Z,14.00
2022-10-21T17:04:20.487Z,14.20
2022-10-21T17:06:49.130Z,14.10
2022-10-21T17:09:17.110Z,14.10
2022-10-21T17:11:45.109Z,14.10
2022-10-21T17:14:17.991Z,14.10
2022-10-21T17:16:46.291Z,14.10
2022-10-21T17:19:14.925Z,14.10
2022-10-21T17:21:43.337Z,14.10
2022-10-21T17:24:14.863Z,14.10
2022-10-21T17:26:42.915Z,14.10
2022-10-21T17:29:11.729Z,14.10
2022-10-21T17:31:42.966Z,14.10
2022-10-21T17:34:21.717Z,14.00
2022-10-21T17:36:49.732Z,14.10
2022-10-21T17:39:17.677Z,14.10
2022-10-21T17:44:19.413Z,14.10
2022-10-21T17:46:51.853Z,14.10
2022-10-21T17:49:21.349Z,14.10
2022-10-21T17:51:50.372Z,14.20
2022-10-21T17:54:21.422Z,14.20
2022-10-21T17:56:52.670Z,14.10
2022-10-21T17:59:20.608Z,14.10
2022-10-21T18:01:49.878Z,14.10
2022-10-21T18:04:17.800Z,14.10
2022-10-21T18:06:45.715Z,14.10
2022-10-21T18:09:13.796Z,14.00
2022-10-21T18:11:41.867Z,14.00
2022-10-21T18:14:09.781Z,13.90
2022-10-21T18:16:37.706Z,14.00
2022-10-21T18:19:07.016Z,14.00
2022-10-21T18:21:34.907Z,14.00
2022-10-21T18:24:03.031Z,14.00
2022-10-21T18:26:32.329Z,13.90
2022-10-21T18:29:02.643Z,13.90
2022-10-21T18:31:32.977Z,13.90
2022-10-21T18:34:03.082Z,13.90
2022-10-21T18:36:33.318Z,13.90
2022-10-21T18:39:02.743Z,13.90
2022-10-21T18:41:31.064Z,13.90
2022-10-21T18:44:01.273Z,13.90
2022-10-21T18:46:30.358Z,14.00
2022-10-21T18:48:59.091Z,14.00
2022-10-21T18:51:27.319Z,14.00
2022-10-21T18:53:56.592Z,14.00
2022-10-21T18:56:26.908Z,14.00
2022-10-21T18:58:56.228Z,14.00
2022-10-21T19:01:26.214Z,14.00
2022-10-21T19:03:56.017Z,14.00
2022-10-21T19:06:33.833Z,13.90
2022-10-21T19:09:05.094Z,13.90
2022-10-21T19:11:33.238Z,13.90
2022-10-21T19:14:01.245Z,14.00
2022-10-21T19:16:29.184Z,14.00
2022-10-21T19:18:57.236Z,13.90
2022-10-21T19:21:26.323Z,13.90
2022-10-21T19:23:54.727Z,14.00
2022-10-21T19:26:24.358Z,14.00
2022-10-21T19:28:52.352Z,14.00
2022-10-21T19:31:21.514Z,14.00
2022-10-21T19:33:49.428Z,14.00
2022-10-21T19:36:17.386Z,14.00
2022-10-21T19:38:45.332Z,14.00
2022-10-21T19:41:15.879Z,13.90
2022-10-21T19:43:45.523Z,14.00
2022-10-21T19:46:19.930Z,14.10
2022-10-21T19:48:50.434Z,14.10
2022-10-21T19:51:20.271Z,14.10
2022-10-21T19:53:49.134Z,14.20
2022-10-21T19:56:20.915Z,14.20
2022-10-21T19:58:53.483Z,14.20
2022-10-21T20:01:23.608Z,14.10
2022-10-21T20:03:52.421Z,14.10
2022-10-21T20:06:23.018Z,14.20
2022-10-21T20:08:51.522Z,14.10
2022-10-21T20:11:21.050Z,14.20
2022-10-21T20:13:50.948Z,14.10
2022-10-21T20:16:22.259Z,14.10
2022-10-21T20:18:50.456Z,14.10
2022-10-21T20:21:18.705Z,14.10
2022-10-21T20:23:47.061Z,14.10
2022-10-21T20:26:15.067Z,14.00
2022-10-21T20:28:42.924Z,14.10
2022-10-21T20:31:12.670Z,14.00
2022-10-21T20:33:43.356Z,14.00
2022-10-21T20:36:14.443Z,14.10
2022-10-21T20:38:42.701Z,14.10
2022-10-21T20:41:14.161Z,14.10
2022-10-21T20:43:42.978Z,14.10
2022-10-21T20:46:12.872Z,14.10
2022-10-21T20:48:43.932Z,14.10
2022-10-21T20:51:13.420Z,14.10
2022-10-21T20:53:45.063Z,14.10
2022-10-21T20:56:13.510Z,14.00
2022-10-21T20:58:42.898Z,14.00
2022-10-21T21:01:12.363Z,14.00
2022-10-21T21:03:42.809Z,14.10
2022-10-21T21:06:12.715Z,14.10
2022-10-21T21:08:48.960Z,14.10
2022-10-21T21:11:17.194Z,14.10
2022-10-21T21:13:45.512Z,14.10
2022-10-21T21:16:15.036Z,14.10
2022-10-21T21:18:45.891Z,14.10
2022-10-21T21:21:16.590Z,14.10
2022-10-21T21:23:45.537Z,14.20
2022-10-21T21:26:15.382Z,14.20
2022-10-21T21:28:43.396Z,14.20
2022-10-21T21:31:12.054Z,14.20
2022-10-21T21:33:40.369Z,14.20
2022-10-21T21:36:10.396Z,14.20
2022-10-21T21:38:39.086Z,14.30
2022-10-21T21:41:09.866Z,14.30
2022-10-21T21:43:41.376Z,14.30
2022-10-21T21:46:09.347Z,14.20
2022-10-21T21:48:37.347Z,14.20
2022-10-21T21:51:09.560Z,14.30
2022-10-21T21:53:39.140Z,14.20
2022-10-21T21:56:09.129Z,14.30
2022-10-21T21:58:38.466Z,14.20
2022-10-21T22:01:11.407Z,14.20
2022-10-21T22:03:39.989Z,14.10
2022-10-21T22:06:08.400Z,14.10
2022-10-21T22:08:40.710Z,14.20
2022-10-21T22:11:10.293Z,14.10
2022-10-21T22:13:38.510Z,14.10
2022-10-21T22:16:08.283Z,14.10
2022-10-21T22:18:36.919Z,14.10
2022-10-21T22:21:06.948Z,14.00
2022-10-21T22:23:35.248Z,14.10
2022-10-21T22:26:05.035Z,14.10
2022-10-21T22:28:33.387Z,14.10
2022-10-21T22:31:03.923Z,14.20
2022-10-21T22:33:32.157Z,14.20
2022-10-21T22:36:00.144Z,14.20
2022-10-21T22:38:29.099Z,14.10
2022-10-21T22:40:58.414Z,14.20
2022-10-21T22:43:28.234Z,14.10
2022-10-21T22:46:05.377Z,14.10
2022-10-21T22:48:44.284Z,14.10
2022-10-21T22:51:12.168Z,14.10
2022-10-21T22:53:40.093Z,14.10
2022-10-21T22:56:08.344Z,14.10
2022-10-21T22:58:37.920Z,14.20
2022-10-21T23:01:08.676Z,14.20
2022-10-21T23:03:37.139Z,14.20
2022-10-21T23:06:05.503Z,14.20
2022-10-21T23:08:33.483Z,14.20
2022-10-21T23:11:01.375Z,14.20
2022-10-21T23:13:29.432Z,14.20
2022-10-21T23:15:58.688Z,14.20
2022-10-21T23:18:26.749Z,14.30
2022-10-21T23:20:54.760Z,14.20
2022-10-21T23:23:22.672Z,14.30
2022-10-21T23:25:50.582Z,14.20
2022-10-21T23:30:51.360Z,14.20
2022-10-21T23:33:20.547Z,14.10
2022-10-21T23:35:48.908Z,14.10
2022-10-21T23:38:16.787Z,14.10
2022-10-21T23:40:44.673Z,14.00
2022-10-21T23:43:12.628Z,14.00
2022-10-21T23:45:40.493Z,13.80
2022-10-21T23:48:08.576Z,13.80
2022-10-21T23:50:42.245Z,13.80
2022-10-21T23:53:11.813Z,13.70
2022-10-21T23:55:39.940Z,13.70
2022-10-21T23:58:07.774Z,13.70
